createdAt,value
2018-04-30T00:00:54.604Z,99711
2018-04-30T00:03:22.841Z,99698
2018-04-30T00:05:51.080Z,99699
2018-04-30T00:08:19.957Z,99695
2018-04-30T00:10:48.845Z,99680
2018-04-30T00:13:17.737Z,99680
2018-04-30T00:15:46.615Z,99677
2018-04-30T00:18:14.787Z,99676
2018-04-30T00:20:42.938Z,99668
2018-04-30T00:23:11.060Z,99662
2018-04-30T00:25:39.188Z,99665
2018-04-30T00:28:07.335Z,99663
2018-04-30T00:30:35.521Z,99660
2018-04-30T00:33:03.653Z,99656
2018-04-30T00:35:32.156Z,99637
2018-04-30T00:38:00.334Z,99635
2018-04-30T00:40:28.481Z,99636
2018-04-30T00:42:56.656Z,99639
2018-04-30T00:45:24.803Z,99640
2018-04-30T00:47:53.684Z,99645
2018-04-30T00:50:21.885Z,99640
2018-04-30T00:52:50.009Z,99633
2018-04-30T00:55:18.128Z,99629
2018-04-30T00:57:46.336Z,99622
2018-04-30T01:00:14.656Z,99631
2018-04-30T01:02:42.822Z,99629
2018-04-30T01:05:11.746Z,99619
2018-04-30T01:07:39.950Z,99608
2018-04-30T01:10:08.122Z,99595
2018-04-30T01:12:36.377Z,99595
2018-04-30T01:15:04.474Z,99595
2018-04-30T01:17:32.630Z,99595
2018-04-30T01:20:01.066Z,99588
2018-04-30T01:22:29.982Z,99583
2018-04-30T01:24:58.122Z,99589
2018-04-30T01:27:27.021Z,99587
2018-04-30T01:29:55.942Z,99582
2018-04-30T01:32:24.087Z,99579
2018-04-30T01:34:53.011Z,99580
2018-04-30T01:37:21.140Z,99577
2018-04-30T01:39:50.168Z,99578
2018-04-30T01:42:18.314Z,99574
2018-04-30T01:44:47.240Z,99570
2018-04-30T01:47:15.404Z,99565
2018-04-30T01:49:43.519Z,99566
2018-04-30T01:52:11.674Z,99555
2018-04-30T01:54:39.813Z,99543
2018-04-30T01:57:07.990Z,99542
2018-04-30T01:59:36.132Z,99537
2018-04-30T02:02:05.011Z,99534
2018-04-30T02:04:33.246Z,99532
2018-04-30T02:07:01.408Z,99529
2018-04-30T02:09:29.541Z,99523
2018-04-30T02:11:58.486Z,99509
2018-04-30T02:14:26.645Z,99503
2018-04-30T02:16:54.783Z,99497
2018-04-30T02:19:23.717Z,99500
2018-04-30T02:21:51.866Z,99489
2018-04-30T02:24:20.015Z,99478
2018-04-30T02:26:48.925Z,99469
2018-04-30T02:29:17.133Z,99470
2018-04-30T02:31:45.312Z,99462
2018-04-30T02:34:13.470Z,99450
2018-04-30T02:36:41.645Z,99444
2018-04-30T02:39:09.785Z,99449
2018-04-30T02:41:37.924Z,99446
2018-04-30T02:44:06.086Z,99436
2018-04-30T02:46:34.232Z,99439
2018-04-30T02:49:02.352Z,99433
2018-04-30T02:51:31.387Z,99428
2018-04-30T02:53:59.640Z,99418
2018-04-30T02:56:28.518Z,99410
2018-04-30T02:58:57.400Z,99412
2018-04-30T03:01:26.370Z,99405
2018-04-30T03:03:54.524Z,99407
2018-04-30T03:06:22.652Z,99398
2018-04-30T03:08:51.557Z,99405
2018-04-30T03:11:19.715Z,99402
2018-04-30T03:13:47.901Z,99398
2018-04-30T03:16:16.043Z,99398
2018-04-30T03:18:44.160Z,99381
2018-04-30T03:21:12.324Z,99380
2018-04-30T03:23:40.461Z,99382
2018-04-30T03:26:09.391Z,99376
2018-04-30T03:28:37.543Z,99370
2018-04-30T03:31:05.671Z,99356
2018-04-30T03:33:33.812Z,99357
2018-04-30T03:36:01.966Z,99355
2018-04-30T03:38:30.084Z,99345
2018-04-30T03:40:58.265Z,99352
2018-04-30T03:43:26.422Z,99352
2018-04-30T03:45:54.557Z,99342
2018-04-30T03:48:22.768Z,99348
2018-04-30T03:50:50.927Z,99352
2018-04-30T03:53:19.069Z,99352
2018-04-30T03:55:47.229Z,99343
2018-04-30T03:58:16.116Z,99342
2018-04-30T04:01:03.061Z,99345
2018-04-30T04:03:49.070Z,99344
2018-04-30T04:09:33.700Z,99348
2018-04-30T04:12:02.966Z,99334
2018-04-30T04:14:31.116Z,99336
2018-04-30T04:16:59.262Z,99328
2018-04-30T04:19:27.384Z,99329
2018-04-30T04:21:55.508Z,99329
2018-04-30T04:24:23.672Z,99322
2018-04-30T04:26:51.778Z,99318
2018-04-30T04:29:19.927Z,99307
2018-04-30T04:31:48.933Z,99319
2018-04-30T04:34:17.084Z,99311
2018-04-30T04:36:45.205Z,99313
2018-04-30T04:39:13.322Z,99300
2018-04-30T04:41:41.593Z,99305
2018-04-30T04:44:09.702Z,99304
2018-04-30T04:46:37.825Z,99294
2018-04-30T04:49:06.821Z,99297
2018-04-30T04:51:35.700Z,99304
2018-04-30T04:54:03.817Z,99323
2018-04-30T04:56:31.961Z,99313
2018-04-30T04:59:00.890Z,99304
2018-04-30T05:01:29.039Z,99289
2018-04-30T05:03:57.172Z,99290
2018-04-30T05:06:25.284Z,99284
2018-04-30T05:08:53.466Z,99285
2018-04-30T05:11:21.620Z,99289
2018-04-30T05:13:49.771Z,99288
2018-04-30T05:16:18.702Z,99286
2018-04-30T05:18:46.858Z,99276
2018-04-30T05:21:14.977Z,99267
2018-04-30T05:23:43.109Z,99272
2018-04-30T05:26:11.285Z,99267
2018-04-30T05:28:39.482Z,99277
2018-04-30T05:31:07.635Z,99282
2018-04-30T05:33:35.786Z,99274
2018-04-30T05:36:03.933Z,99272
2018-04-30T05:38:32.052Z,99277
2018-04-30T05:41:00.610Z,99270
2018-04-30T05:43:28.732Z,99269
2018-04-30T05:45:56.875Z,99260
2018-04-30T05:48:25.062Z,99264
2018-04-30T05:50:53.205Z,99259
2018-04-30T05:53:21.325Z,99248
2018-04-30T05:55:49.581Z,99248
2018-04-30T05:58:17.781Z,99231
2018-04-30T06:00:45.960Z,99238
2018-04-30T06:03:14.083Z,99221
2018-04-30T06:05:42.269Z,99228
2018-04-30T06:08:10.441Z,99223
2018-04-30T06:10:38.588Z,99221
2018-04-30T06:13:06.766Z,99220
2018-04-30T06:15:34.892Z,99209
2018-04-30T06:18:03.050Z,99207
2018-04-30T06:20:32.005Z,99209
2018-04-30T06:23:00.117Z,99205
2018-04-30T06:25:28.244Z,99195
2018-04-30T06:27:56.370Z,99218
2018-04-30T06:30:24.541Z,99211
2018-04-30T06:32:52.761Z,99213
2018-04-30T06:35:20.899Z,99210
2018-04-30T06:37:49.037Z,99200
2018-04-30T06:40:17.235Z,99190
2018-04-30T06:42:45.373Z,99197
2018-04-30T06:45:14.607Z,99198
2018-04-30T06:47:42.781Z,99193
2018-04-30T06:50:10.896Z,99184
2018-04-30T06:52:39.049Z,99179
2018-04-30T06:55:07.960Z,99168
2018-04-30T06:57:36.085Z,99167
2018-04-30T07:00:04.268Z,99169
2018-04-30T07:02:33.009Z,99164
2018-04-30T07:05:01.193Z,99163
2018-04-30T07:07:29.385Z,99164
2018-04-30T07:09:57.511Z,99170
2018-04-30T07:12:25.649Z,99164
2018-04-30T07:14:53.907Z,99161
2018-04-30T07:17:22.053Z,99156
2018-04-30T07:19:50.216Z,99158
2018-04-30T07:22:18.362Z,99162
2018-04-30T07:24:46.517Z,99159
2018-04-30T07:27:15.443Z,99163
2018-04-30T07:29:43.605Z,99155
2018-04-30T07:32:11.745Z,99166
2018-04-30T07:34:39.890Z,99158
2018-04-30T07:37:08.071Z,99151
2018-04-30T07:39:36.247Z,99151
2018-04-30T07:42:04.419Z,99156
2018-04-30T07:44:32.598Z,99152
2018-04-30T07:47:00.794Z,99155
2018-04-30T07:49:29.732Z,99149
2018-04-30T07:51:57.917Z,99156
2018-04-30T07:54:26.040Z,99141
2018-04-30T07:56:54.967Z,99146
2018-04-30T07:59:23.120Z,99151
2018-04-30T08:01:51.274Z,99150
2018-04-30T08:04:20.198Z,99141
2018-04-30T08:06:48.382Z,99145
2018-04-30T08:09:16.501Z,99147
2018-04-30T08:11:45.409Z,99146
2018-04-30T08:14:14.646Z,99140
2018-04-30T08:16:42.767Z,99149
2018-04-30T08:19:11.652Z,99139
2018-04-30T08:21:40.601Z,99142
2018-04-30T08:24:08.717Z,99147
2018-04-30T08:26:37.605Z,99150
2018-04-30T08:29:06.558Z,99158
2018-04-30T08:31:34.773Z,99146
2018-04-30T08:34:04.226Z,99163
2018-04-30T08:36:32.485Z,99153
2018-04-30T08:39:02.557Z,99150
2018-04-30T08:41:31.498Z,99153
2018-04-30T08:43:59.612Z,99162
2018-04-30T08:46:27.847Z,99155
2018-04-30T08:48:56.157Z,99160
2018-04-30T08:51:24.273Z,99170
2018-04-30T08:53:52.429Z,99159
2018-04-30T08:56:20.588Z,99163
2018-04-30T08:58:49.496Z,99170
2018-04-30T09:01:17.620Z,99155
2018-04-30T09:03:45.759Z,99159
2018-04-30T09:06:14.677Z,99166
2018-04-30T09:08:42.800Z,99161
2018-04-30T09:11:11.742Z,99160
2018-04-30T09:13:39.878Z,99177
2018-04-30T09:16:08.030Z,99175
2018-04-30T09:18:36.975Z,99188
2018-04-30T09:21:05.097Z,99182
2018-04-30T09:23:34.011Z,99182
2018-04-30T09:26:02.186Z,99188
2018-04-30T09:28:30.346Z,99193
2018-04-30T09:30:58.472Z,99176
2018-04-30T09:33:26.645Z,99199
2018-04-30T09:35:55.934Z,99188
2018-04-30T09:38:24.078Z,99192
2018-04-30T09:40:52.216Z,99201
2018-04-30T09:43:21.181Z,99193
2018-04-30T09:45:49.348Z,99215
2018-04-30T09:48:17.522Z,99224
2018-04-30T09:50:45.637Z,99238
2018-04-30T09:53:13.752Z,99256
2018-04-30T09:55:42.094Z,99221
2018-04-30T09:58:10.277Z,99230
2018-04-30T10:00:38.398Z,99263
2018-04-30T10:03:06.636Z,99285
2018-04-30T10:05:34.792Z,99260
2018-04-30T10:08:02.968Z,99271
2018-04-30T10:10:31.150Z,99305
2018-04-30T10:12:59.314Z,99305
2018-04-30T10:15:27.456Z,99306
2018-04-30T10:17:56.369Z,99323
2018-04-30T10:20:24.526Z,99338
2018-04-30T10:22:52.698Z,99333
2018-04-30T10:25:20.850Z,99359
2018-04-30T10:27:49.768Z,99346
2018-04-30T10:30:18.091Z,99367
2018-04-30T10:32:46.205Z,99374
2018-04-30T10:35:15.113Z,99438
2018-04-30T10:37:43.407Z,99380
2018-04-30T10:40:12.294Z,99401
2018-04-30T10:42:40.436Z,99409
2018-04-30T10:45:09.357Z,99423
2018-04-30T10:47:37.507Z,99420
2018-04-30T10:50:05.654Z,99427
2018-04-30T10:52:34.569Z,99401
2018-04-30T10:55:02.790Z,99431
2018-04-30T10:57:31.042Z,99420
2018-04-30T10:59:59.193Z,99434
2018-04-30T11:02:27.474Z,99440
2018-04-30T11:04:55.649Z,99441
2018-04-30T11:07:23.767Z,99452
2018-04-30T11:09:52.401Z,99458
2018-04-30T11:12:20.640Z,99470
2018-04-30T11:14:48.735Z,99469
2018-04-30T11:17:17.146Z,99465
2018-04-30T11:19:45.352Z,99462
2018-04-30T11:22:14.252Z,99467
2018-04-30T11:24:42.768Z,99472
2018-04-30T11:27:10.904Z,99493
2018-04-30T11:29:39.062Z,99470
2018-04-30T11:32:07.214Z,99478
2018-04-30T11:34:35.665Z,99492
2018-04-30T11:37:03.825Z,99483
2018-04-30T11:39:31.990Z,99481
2018-04-30T11:42:00.392Z,99505
2018-04-30T11:44:28.653Z,99494
2018-04-30T11:46:56.793Z,99497
2018-04-30T11:49:24.996Z,99523
2018-04-30T11:51:53.120Z,99499
2018-04-30T11:54:21.313Z,99505
2018-04-30T11:56:50.589Z,99515
2018-04-30T11:59:18.719Z,99510
2018-04-30T12:01:46.893Z,99547
2018-04-30T12:04:15.208Z,99527
2018-04-30T12:06:43.370Z,99553
2018-04-30T12:09:12.692Z,99561
2018-04-30T12:11:40.823Z,99546
2018-04-30T12:14:08.977Z,99544
2018-04-30T12:16:37.132Z,99557
2018-04-30T12:19:05.265Z,99542
2018-04-30T12:21:33.414Z,99552
2018-04-30T12:24:01.561Z,99555
2018-04-30T12:26:29.700Z,99587
2018-04-30T12:28:57.827Z,99573
2018-04-30T12:31:26.026Z,99579
2018-04-30T12:33:54.163Z,99561
2018-04-30T12:36:22.316Z,99576
2018-04-30T12:38:50.509Z,99581
2018-04-30T12:41:18.628Z,99564
2018-04-30T12:43:46.871Z,99537
2018-04-30T12:46:15.801Z,99576
2018-04-30T12:48:43.935Z,99569
2018-04-30T12:51:12.081Z,99595
2018-04-30T12:53:40.226Z,99593
2018-04-30T12:56:08.383Z,99596
2018-04-30T12:58:36.572Z,99594
2018-04-30T13:01:04.758Z,99593
2018-04-30T13:03:33.702Z,99599
2018-04-30T13:06:01.847Z,99596
2018-04-30T13:08:30.018Z,99621
2018-04-30T13:10:58.169Z,99613
2018-04-30T13:13:26.333Z,99605
2018-04-30T13:15:55.237Z,99623
2018-04-30T13:18:23.406Z,99641
2018-04-30T13:20:52.284Z,99618
2018-04-30T13:23:20.450Z,99616
2018-04-30T13:25:48.808Z,99621
2018-04-30T13:28:16.945Z,99633
2018-04-30T13:30:45.138Z,99632
2018-04-30T13:33:13.311Z,99629
2018-04-30T13:35:41.461Z,99623
2018-04-30T13:38:09.642Z,99625
2018-04-30T13:40:37.803Z,99614
2018-04-30T13:43:05.941Z,99610
2018-04-30T13:45:34.873Z,99629
2018-04-30T13:48:02.988Z,99619
2018-04-30T13:50:31.101Z,99616
2018-04-30T13:52:59.285Z,99629
2018-04-30T13:55:27.404Z,99624
2018-04-30T13:57:55.628Z,99617
2018-04-30T14:00:23.820Z,99640
2018-04-30T14:02:52.625Z,99652
2018-04-30T14:05:21.074Z,99634
2018-04-30T14:07:49.217Z,99642
2018-04-30T14:10:18.202Z,99642
2018-04-30T14:12:46.352Z,99636
2018-04-30T14:15:14.460Z,99658
2018-04-30T14:17:43.519Z,99655
2018-04-30T14:20:11.656Z,99639
2018-04-30T14:22:39.814Z,99650
2018-04-30T14:25:07.957Z,99662
2018-04-30T14:27:36.909Z,99656
2018-04-30T14:30:05.063Z,99639
2018-04-30T14:32:33.209Z,99662
2018-04-30T14:35:02.211Z,99665
2018-04-30T14:37:30.331Z,99653
2018-04-30T14:39:58.502Z,99664
2018-04-30T14:42:26.679Z,99669
2018-04-30T14:44:54.851Z,99662
2018-04-30T14:47:22.972Z,99682
2018-04-30T14:49:52.641Z,99686
2018-04-30T14:52:20.821Z,99689
2018-04-30T14:54:48.953Z,99678
2018-04-30T14:57:17.319Z,99681
2018-04-30T14:59:45.494Z,99709
2018-04-30T15:02:13.640Z,99687
2018-04-30T15:04:41.769Z,99691
2018-04-30T15:07:09.896Z,99749
2018-04-30T15:09:38.059Z,99700
2018-04-30T15:12:06.261Z,99700
2018-04-30T15:14:34.384Z,99725
2018-04-30T15:17:03.292Z,99708
2018-04-30T15:19:32.209Z,99727
2018-04-30T15:22:00.366Z,99723
2018-04-30T15:24:28.686Z,99753
2018-04-30T15:26:57.629Z,99727
2018-04-30T15:29:25.770Z,99709
2018-04-30T15:31:54.132Z,99706
2018-04-30T15:34:22.436Z,99719
2018-04-30T15:36:51.784Z,99711
2018-04-30T15:39:19.977Z,99706
2018-04-30T15:41:48.147Z,99712
2018-04-30T15:44:16.284Z,99704
2018-04-30T15:46:44.448Z,99712
2018-04-30T15:49:13.137Z,99734
2018-04-30T15:51:41.234Z,99737
2018-04-30T15:54:11.109Z,99757
2018-04-30T15:56:39.295Z,99755
2018-04-30T15:59:07.442Z,99749
2018-04-30T16:01:36.350Z,99739
2018-04-30T16:04:04.514Z,99737
2018-04-30T16:06:32.677Z,99747
2018-04-30T16:09:01.592Z,99750
2018-04-30T16:11:29.724Z,99744
2018-04-30T16:13:58.142Z,99743
2018-04-30T16:16:26.435Z,99775
2018-04-30T16:18:54.593Z,99748
2018-04-30T16:21:22.744Z,99744
2018-04-30T16:23:51.673Z,99752
2018-04-30T16:26:19.792Z,99760
2018-04-30T16:28:48.004Z,99777
2018-04-30T16:31:16.203Z,99751
2018-04-30T16:33:44.356Z,99759
2018-04-30T16:36:12.468Z,99765
2018-04-30T16:38:40.613Z,99761
2018-04-30T16:41:08.762Z,99765
2018-04-30T16:43:36.881Z,99780
2018-04-30T16:46:05.021Z,99776
2018-04-30T16:48:33.129Z,99794
2018-04-30T16:51:01.282Z,99783
2018-04-30T16:53:29.457Z,99793
2018-04-30T16:55:57.628Z,99788
2018-04-30T16:58:25.774Z,99789
2018-04-30T17:00:53.904Z,99799
2018-04-30T17:03:22.052Z,99818
2018-04-30T17:05:50.194Z,99802
2018-04-30T17:08:18.338Z,99801
2018-04-30T17:10:47.242Z,99795
2018-04-30T17:13:15.357Z,99810
2018-04-30T17:15:43.493Z,99810
2018-04-30T17:18:11.605Z,99795
2018-04-30T17:20:39.750Z,99793
2018-04-30T17:23:07.928Z,99800
2018-04-30T17:25:36.073Z,99796
2018-04-30T17:28:04.252Z,99796
2018-04-30T17:30:32.461Z,99796
2018-04-30T17:33:00.554Z,99801
2018-04-30T17:35:28.693Z,99801
2018-04-30T17:37:56.879Z,99804
2018-04-30T17:40:25.070Z,99808
2018-04-30T17:42:53.372Z,99817
2018-04-30T17:45:21.508Z,99822
2018-04-30T17:47:49.677Z,99827
2018-04-30T17:50:17.846Z,99835
2018-04-30T17:52:46.007Z,99836
2018-04-30T17:55:14.174Z,99839
2018-04-30T17:57:42.284Z,99840
2018-04-30T18:00:10.437Z,99831
2018-04-30T18:02:38.577Z,99841
2018-04-30T18:05:06.693Z,99834
2018-04-30T18:07:34.810Z,99843
2018-04-30T18:10:02.937Z,99840
2018-04-30T18:12:31.145Z,99851
2018-04-30T18:15:00.169Z,99850
2018-04-30T18:17:28.325Z,99853
2018-04-30T18:19:56.525Z,99858
2018-04-30T18:22:24.710Z,99849
2018-04-30T18:24:52.831Z,99842
2018-04-30T18:27:20.977Z,99833
2018-04-30T18:29:49.114Z,99834
2018-04-30T18:32:17.257Z,99831
2018-04-30T18:34:45.386Z,99841
2018-04-30T18:37:13.589Z,99846
2018-04-30T18:39:42.476Z,99859
2018-04-30T18:42:11.398Z,99861
2018-04-30T18:44:39.582Z,99861
2018-04-30T18:47:07.830Z,99854
2018-04-30T18:49:36.006Z,99866
2018-04-30T18:52:04.239Z,99855
2018-04-30T18:54:33.160Z,99849
2018-04-30T18:57:01.403Z,99862
2018-04-30T18:59:29.553Z,99872
2018-04-30T19:01:57.673Z,99877
2018-04-30T19:04:26.573Z,99880
2018-04-30T19:06:54.688Z,99879
2018-04-30T19:09:22.796Z,99882
2018-04-30T19:11:51.788Z,99881
2018-04-30T19:14:21.115Z,99891
2018-04-30T19:16:49.993Z,99890
2018-04-30T19:19:18.201Z,99890
2018-04-30T19:21:46.354Z,99892
2018-04-30T19:24:14.522Z,99895
2018-04-30T19:26:42.678Z,99899
2018-04-30T19:29:10.860Z,99893
2018-04-30T19:31:39.032Z,99902
2018-04-30T19:34:07.140Z,99903
2018-04-30T19:36:35.454Z,99895
2018-04-30T19:39:04.373Z,99899
2018-04-30T19:41:32.898Z,99902
2018-04-30T19:44:01.081Z,99895
2018-04-30T19:46:29.258Z,99890
2018-04-30T19:48:57.409Z,99900
2018-04-30T19:51:25.544Z,99903
2018-04-30T19:53:53.705Z,99910
2018-04-30T19:56:22.585Z,99906
2018-04-30T19:58:52.417Z,99900
2018-04-30T20:01:20.639Z,99904
2018-04-30T20:03:48.753Z,99905
2018-04-30T20:06:17.629Z,99896
2018-04-30T20:08:46.561Z,99910
2018-04-30T20:11:14.705Z,99914
2018-04-30T20:13:43.589Z,99930
2018-04-30T20:16:12.521Z,99929
2018-04-30T20:18:40.687Z,99926
2018-04-30T20:21:08.833Z,99920
2018-04-30T20:23:37.022Z,99929
2018-04-30T20:26:05.177Z,99927
2018-04-30T20:28:34.080Z,99927
2018-04-30T20:31:02.217Z,99933
2018-04-30T20:33:30.340Z,99937
2018-04-30T20:35:58.477Z,99941
2018-04-30T20:38:27.376Z,99942
2018-04-30T20:40:55.558Z,99949
2018-04-30T20:43:23.687Z,99958
2018-04-30T20:45:51.813Z,99951
2018-04-30T20:48:19.961Z,99956
2018-04-30T20:50:48.833Z,99955
2018-04-30T20:53:17.732Z,99956
2018-04-30T20:55:46.647Z,99957
2018-04-30T20:58:14.764Z,99951
2018-04-30T21:00:42.923Z,99953
2018-04-30T21:03:11.069Z,99957
2018-04-30T21:05:39.184Z,99962
2018-04-30T21:08:07.310Z,99960
2018-04-30T21:10:35.500Z,99962
2018-04-30T21:13:03.650Z,99958
2018-04-30T21:15:31.780Z,99968
2018-04-30T21:17:59.933Z,99956
2018-04-30T21:20:28.081Z,99969
2018-04-30T21:22:56.246Z,99958
2018-04-30T21:25:24.404Z,99963
2018-04-30T21:27:52.525Z,99968
2018-04-30T21:30:20.685Z,99967
2018-04-30T21:32:49.061Z,99966
2018-04-30T21:35:17.186Z,99965
2018-04-30T21:37:46.076Z,99967
2018-04-30T21:40:15.027Z,99962
2018-04-30T21:42:43.190Z,99958
2018-04-30T21:45:11.327Z,99964
2018-04-30T21:47:39.490Z,99965
2018-04-30T21:50:07.629Z,99961
2018-04-30T21:52:35.778Z,99968
2018-04-30T21:55:03.942Z,99961
2018-04-30T21:57:32.186Z,99953
2018-04-30T22:00:00.349Z,99952
2018-04-30T22:02:29.265Z,99962
2018-04-30T22:04:57.409Z,99958
2018-04-30T22:07:26.319Z,99956
2018-04-30T22:09:54.519Z,99958
2018-04-30T22:12:22.691Z,99955
2018-04-30T22:14:50.817Z,99962
2018-04-30T22:17:19.704Z,99958
2018-04-30T22:19:48.621Z,99957
2018-04-30T22:22:16.757Z,99957
2018-04-30T22:24:44.910Z,99954
2018-04-30T22:27:13.021Z,99946
2018-04-30T22:29:41.337Z,99952
2018-04-30T22:32:09.494Z,99948
2018-04-30T22:34:37.630Z,99953
2018-04-30T22:37:06.571Z,99954
2018-04-30T22:39:34.687Z,99954
2018-04-30T22:42:03.508Z,99969
2018-04-30T22:44:31.671Z,99973
2018-04-30T22:46:59.795Z,99978
2018-04-30T22:49:27.949Z,99981
2018-04-30T22:51:56.078Z,99978
2018-04-30T22:54:24.964Z,99982
2018-04-30T22:56:53.876Z,99981
2018-04-30T22:59:22.019Z,99985
2018-04-30T23:01:51.642Z,99981
2018-04-30T23:04:19.814Z,99981
2018-04-30T23:06:47.969Z,99976
2018-04-30T23:09:16.886Z,99984
2018-04-30T23:11:45.024Z,99988
2018-04-30T23:14:13.145Z,99975
2018-04-30T23:16:41.263Z,99961
2018-04-30T23:19:09.442Z,99965
2018-04-30T23:21:38.332Z,99958
2018-04-30T23:24:06.449Z,99961
2018-04-30T23:26:34.645Z,99965
2018-04-30T23:29:02.770Z,99961
2018-04-30T23:31:31.710Z,99967
2018-04-30T23:33:59.887Z,99963
2018-04-30T23:36:28.040Z,99971
2018-04-30T23:38:56.168Z,99957
2018-04-30T23:41:25.107Z,99955
2018-04-30T23:43:53.258Z,99957
2018-04-30T23:46:21.450Z,99966
2018-04-30T23:48:49.608Z,99968
2018-04-30T23:51:17.749Z,99970
2018-04-30T23:53:46.662Z,99968
2018-04-30T23:56:14.865Z,99968
2018-04-30T23:58:43.057Z,99976
